This is the latest recevied weather packets stored in our database for station/object 1NW106. If no packets are shown the sender has not sent any weather packets the latest 10 day(s).
| Time | Temp. | Humidity | Pressure | Rain* | Wind** | Luminosity | Snow |
|---|---|---|---|---|---|---|---|
| 1787615967 | 25° C | 95% | 1006.6 hPa | 13.21 mm | - | - | - |
| 1787615367 | 24.44° C | 97% | 1006.4 hPa | 13.21 mm | - | - | - |
| 1787611767 | 24.44° C | 97% | 1006.3 hPa | 13.21 mm | - | - | - |
| 1787611168 | 25° C | 96% | 1006.4 hPa | 13.21 mm | - | - | - |
| 1787610567 | 25° C | 95% | 1006.6 hPa | 13.21 mm | - | - | - |
| 1787609967 | 25° C | 96% | 1006.4 hPa | 13.21 mm | - | - | - |
| 1787609367 | 25° C | 96% | 1006.3 hPa | 13.21 mm | - | - | - |
| 1787608767 | 24.44° C | 97% | 1006 hPa | 13.21 mm | - | - | - |
| 1787608167 | 24.44° C | 97% | 1005.8 hPa | 13.21 mm | - | - | - |
| 1787607567 | 25° C | 97% | 1005.9 hPa | 13.21 mm | - | - | - |
| 1787606967 | 25° C | 96% | 1006.1 hPa | 13.21 mm | - | - | - |
| 1787606367 | 25° C | 95% | 1006.3 hPa | 13.21 mm | - | - | - |
| 1787605767 | 25° C | 93% | 1006.6 hPa | 13.21 mm | - | - | - |
| 1787605167 | 25° C | 94% | 1006.4 hPa | 13.21 mm | - | - | - |
| 1787604567 | 25° C | 96% | 1006.1 hPa | 13.21 mm | - | - | - |
| 1787603967 | 25° C | 96% | 1006.1 hPa | 13.21 mm | - | - | - |
| 1787603367 | 24.44° C | 97% | 1005.7 hPa | 13.21 mm | - | - | - |
| 1787602767 | 24.44° C | 99% | 1005.2 hPa | 13.21 mm | - | - | - |
| 1787602167 | 24.44° C | 99% | 1005.1 hPa | 13.21 mm | - | - | - |
| 1787601567 | 24.44° C | 99% | 1005.1 hPa | 13.21 mm | - | - | - |
| 1787600967 | 24.44° C | 99% | 1005 hPa | 13.21 mm | - | - | - |
| 1787600366 | 24.44° C | 99% | 1005.2 hPa | 13.21 mm | - | - | - |
| 1787599767 | 24.44° C | 99% | 1005.4 hPa | 13.21 mm | - | - | - |
| 1787599167 | 25° C | 98% | 1006.1 hPa | 13.21 mm | - | - | - |
| 1787598566 | 25.56° C | 94% | 1006.8 hPa | 13.21 mm | - | - | - |
* Rain latest hour (hover to see other rain measurements)
** Current wind speed in m/s (hover to see current wind gust speed)